.
WxDataArchive / Data Records for 2013-12-14
2013-12-13 December 2013 2013-12-15

Data Records for Saturday, 14 December 2013

Time	Temp	Chill	HIndex	Humid	Dewpt	 Wind 	HiWind	WindDir	Rain 	Barom 
-----	----	-----	------	-----	-----	------	------	-------	-----	----- 
00:00	26.0	26.0	26.0	89	23.2	2	4	90	0.00	30.191 
00:05	26.0	26.0	26.0	89	23.2	1	4	90	0.00	30.191 
00:10	26.0	26.0	26.0	89	23.2	2	3	90	0.00	30.191 
00:15	26.0	26.0	26.0	90	23.5	1	3	90	0.00	30.191 
00:20	26.0	26.0	26.0	90	23.5	1	3	90	0.00	30.191 
00:25	26.0	26.0	26.0	90	23.5	1	2	90	0.00	30.191 
00:30	26.0	26.0	26.0	90	23.5	1	4	90	0.00	30.190 
00:35	26.0	26.0	26.0	90	23.5	1	5	90	0.00	30.190 
00:40	25.8	25.8	25.8	90	23.3	1	3	90	0.00	30.190 
00:45	26.0	26.0	26.0	91	23.7	1	4	90	0.00	30.188 
00:50	25.8	25.8	25.8	91	23.5	1	4	90	0.00	30.188 
00:55	25.8	25.8	25.8	91	23.5	2	4	90	0.00	30.188 
01:00	26.0	26.0	26.0	91	23.7	1	4	90	0.00	30.184 
01:05	26.0	26.0	26.0	91	23.7	1	3	90	0.00	30.184 
01:10	26.0	26.0	26.0	91	23.7	1	4	90	0.00	30.184 
01:15	26.0	26.0	26.0	91	23.7	1	4	90	0.00	30.173 
01:20	26.0	26.0	26.0	91	23.7	2	4	90	0.00	30.173 
01:25	26.0	26.0	26.0	91	23.7	2	4	90	0.00	30.173 
01:30	25.8	25.8	25.8	91	23.5	2	4	90	0.00	30.169 
01:35	25.8	25.8	25.8	91	23.5	2	5	90	0.00	30.169 
01:40	25.8	25.8	25.8	91	23.5	2	6	112	0.00	30.169 
01:45	25.8	25.8	25.8	91	23.5	0	3	90	0.00	30.157 
01:50	25.7	25.7	25.7	91	23.4	1	4	90	0.00	30.157 
01:55	25.7	25.7	25.7	91	23.4	1	5	90	0.00	30.157 
02:00	25.7	25.7	25.7	91	23.4	2	4	90	0.00	30.155 
02:05	25.6	25.6	25.6	91	23.3	1	4	90	0.00	30.155 
02:10	25.6	25.6	25.6	91	23.3	1	6	90	0.00	30.155 
02:15	25.6	25.6	25.6	91	23.3	2	4	90	0.00	30.157 
02:20	25.6	25.6	25.6	91	23.3	1	4	90	0.00	30.157 
02:25	25.6	25.6	25.6	91	23.3	2	7	90	0.00	30.157 
02:30	25.6	25.6	25.6	91	23.3	2	5	112	0.00	30.158 
02:35	25.7	25.7	25.7	91	23.4	1	6	112	0.00	30.158 
02:40	25.7	25.7	25.7	91	23.4	2	7	112	0.00	30.158 
02:45	25.7	25.7	25.7	91	23.4	2	5	90	0.00	30.157 
02:50	25.7	25.7	25.7	91	23.4	2	6	90	0.00	30.157 
02:55	25.7	25.7	25.7	91	23.4	2	9	90	0.00	30.157 
03:00	25.7	25.7	25.7	91	23.4	3	7	90	0.00	30.146 
03:05	25.7	25.7	25.7	91	23.4	3	5	90	0.00	30.146 
03:10	25.7	25.7	25.7	92	23.7	2	7	90	0.00	30.146 
03:15	25.7	25.7	25.7	92	23.7	1	4	90	0.00	30.145 
03:20	25.7	25.7	25.7	92	23.7	2	4	90	0.00	30.145 
03:25	25.8	25.8	25.8	92	23.8	2	5	90	0.00	30.145 
03:30	25.8	25.8	25.8	92	23.8	2	5	90	0.00	30.134 
03:35	25.8	25.8	25.8	92	23.8	2	4	112	0.00	30.134 
03:40	25.8	25.8	25.8	92	23.8	2	5	112	0.00	30.134 
03:45	25.8	25.8	25.8	92	23.8	2	4	90	0.00	30.129 
03:50	25.8	25.8	25.8	92	23.8	1	3	90	0.00	30.129 
03:55	25.8	25.8	25.8	92	23.8	2	7	90	0.00	30.129 
04:00	25.8	25.8	25.8	92	23.8	2	9	90	0.00	30.128 
04:05	25.8	25.8	25.8	92	23.8	1	4	90	0.00	30.128 
04:10	25.8	25.8	25.8	92	23.8	2	5	90	0.00	30.128 
04:15	25.8	25.8	25.8	92	23.8	2	5	90	0.00	30.129 
04:20	25.8	25.8	25.8	92	23.8	2	5	90	0.00	30.129 
04:25	25.7	25.7	25.7	92	23.7	3	7	112	0.00	30.129 
04:30	25.7	25.7	25.7	92	23.7	1	3	90	0.00	30.120 
04:35	25.7	25.7	25.7	92	23.7	1	5	90	0.00	30.120 
04:40	25.7	25.7	25.7	92	23.7	2	5	90	0.00	30.120 
04:45	25.7	25.7	25.7	92	23.7	1	6	90	0.00	30.111 
04:50	25.7	25.7	25.7	92	23.7	1	5	90	0.00	30.111 
04:55	25.6	25.6	25.6	92	23.6	2	6	112	0.00	30.111 
05:00	25.6	25.6	25.6	92	23.6	3	6	90	0.00	30.102 
05:05	25.6	25.6	25.6	92	23.6	3	7	90	0.00	30.102 
05:10	25.4	25.4	25.4	92	23.4	3	7	90	0.00	30.102 
05:15	25.4	20.5	25.4	91	23.1	4	10	90	0.00	30.108 
05:20	25.4	25.4	25.4	91	23.1	3	10	90	0.00	30.108 
05:25	25.4	25.4	25.4	91	23.1	3	7	90	0.00	30.108 
05:30	25.4	25.4	25.4	91	23.1	3	6	90	0.00	30.113 
05:35	25.4	25.4	25.4	91	23.1	3	7	90	0.00	30.113 
05:40	25.4	25.4	25.4	91	23.1	3	7	90	0.00	30.113 
05:45	25.4	25.4	25.4	91	23.1	3	8	90	0.00	30.106 
05:50	25.4	25.4	25.4	91	23.1	3	6	90	0.00	30.106 
05:55	25.4	19.3	25.4	91	23.1	5	13	90	0.00	30.106 
06:00	25.4	20.5	25.4	91	23.1	4	7	90	0.00	30.094 
06:05	25.4	19.3	25.4	91	23.1	5	12	90	0.00	30.094 
06:10	25.4	20.5	25.4	92	23.4	4	10	90	0.00	30.094 
06:15	25.4	25.4	25.4	92	23.4	3	6	90	0.00	30.088 
06:20	25.4	20.5	25.4	92	23.4	4	10	90	0.00	30.088 
06:25	25.4	20.5	25.4	92	23.4	4	10	112	0.00	30.088 
06:30	25.4	20.5	25.4	92	23.4	4	9	90	0.00	30.082 
06:35	25.4	20.5	25.4	91	23.1	4	10	90	0.00	30.082 
06:40	25.4	20.5	25.4	91	23.1	4	7	90	0.00	30.082 
06:45	25.4	20.5	25.4	91	23.1	4	7	90	0.00	30.082 
06:50	25.4	25.4	25.4	91	23.1	3	11	90	0.00	30.082 
06:55	25.3	25.3	25.3	91	23.0	2	7	90	0.00	30.082 
07:00	25.3	19.2	25.3	91	23.0	5	10	90	0.00	30.081 
07:05	25.1	20.1	25.1	91	22.9	4	9	90	0.00	30.081 
07:10	25.1	25.1	25.1	91	22.9	2	9	90	0.00	30.081 
07:15	25.0	25.0	25.0	91	22.8	2	5	112	0.00	30.066 
07:20	24.8	24.8	24.8	91	22.6	1	5	90	0.00	30.066 
07:25	24.5	24.5	24.5	91	22.3	1	4	90	0.00	30.066 
07:30	24.4	24.4	24.4	91	22.2	1	4	90	0.00	30.069 
07:35	24.2	24.2	24.2	91	22.0	2	5	90	0.00	30.069 
07:40	24.1	24.1	24.1	91	21.9	2	7	90	0.00	30.069 
07:45	23.9	23.9	23.9	91	21.7	3	10	112	0.00	30.064 
07:50	23.9	23.9	23.9	91	21.7	2	7	90	0.00	30.064 
07:55	23.9	23.9	23.9	91	21.7	3	9	90	0.00	30.064 
08:00	23.9	23.9	23.9	91	21.7	3	10	112	0.00	30.063 
08:05	23.9	23.9	23.9	91	21.7	3	7	90	0.00	30.063 
08:10	23.8	23.8	23.8	91	21.6	3	9	90	0.00	30.063 
08:15	23.8	18.6	23.8	91	21.6	4	9	112	0.00	30.066 
08:20	23.8	23.8	23.8	91	21.6	3	9	90	0.00	30.066 
08:25	23.8	23.8	23.8	91	21.6	3	7	90	0.00	30.066 
08:30	23.8	23.8	23.8	91	21.6	3	11	90	0.00	30.051 
08:35	23.8	23.8	23.8	92	21.8	1	5	90	0.00	30.051 
08:40	23.8	23.8	23.8	92	21.8	2	7	90	0.00	30.051 
08:45	23.8	23.8	23.8	92	21.8	3	9	90	0.00	30.030 
08:50	23.8	23.8	23.8	92	21.8	1	5	90	0.00	30.030 
08:55	23.8	23.8	23.8	92	21.8	3	10	90	0.00	30.030 
09:00	23.6	18.4	23.6	92	21.6	4	11	90	0.00	30.034 
09:05	23.6	23.6	23.6	92	21.6	3	10	90	0.00	30.034 
09:10	23.6	18.4	23.6	92	21.6	4	11	90	0.00	30.034 
09:15	23.6	18.4	23.6	92	21.6	4	10	90	0.00	30.041 
09:20	23.6	18.4	23.6	92	21.6	4	10	90	0.00	30.041 
09:25	23.6	18.4	23.6	91	21.4	4	12	112	0.00	30.041 
09:30	23.6	23.6	23.6	91	21.4	3	9	90	0.00	30.036 
09:35	23.6	23.6	23.6	92	21.6	3	7	112	0.00	30.036 
09:40	23.6	23.6	23.6	92	21.6	2	7	112	0.00	30.036 
09:45	23.6	23.6	23.6	92	21.6	2	5	112	0.00	30.023 
09:50	23.8	23.8	23.8	92	21.8	2	7	112	0.00	30.023 
09:55	23.8	23.8	23.8	92	21.8	3	7	112	0.00	30.023 
10:00	23.8	23.8	23.8	92	21.8	2	6	112	0.00	30.021 
10:05	23.9	23.9	23.9	92	21.9	2	6	90	0.00	30.021 
10:10	23.9	23.9	23.9	92	21.9	2	5	90	0.00	30.021 
10:15	24.1	24.1	24.1	92	22.1	1	4	112	0.00	30.014 
10:20	24.1	24.1	24.1	92	22.1	2	6	112	0.00	30.014 
10:25	24.1	24.1	24.1	92	22.1	3	9	112	0.00	30.014 
10:30	24.1	24.1	24.1	92	22.1	3	10	112	0.00	29.998 
10:35	24.1	24.1	24.1	92	22.1	3	10	90	0.00	29.998 
10:40	24.2	19.1	24.2	92	22.2	4	10	90	0.00	29.998 
10:45	24.2	24.2	24.2	92	22.2	3	9	90	0.00	29.994 
10:50	24.2	19.1	24.2	92	22.2	4	7	112	0.00	29.994 
10:55	24.4	24.4	24.4	92	22.4	2	9	90	0.00	29.994 
11:00	24.4	24.4	24.4	92	22.4	2	9	90	0.00	29.987 
11:05	24.4	24.4	24.4	92	22.4	2	9	90	0.00	29.987 
11:10	24.4	24.4	24.4	92	22.4	3	7	112	0.00	29.987 
11:15	24.4	24.4	24.4	92	22.4	2	6	112	0.00	29.971 
11:20	24.2	24.2	24.2	92	22.2	2	10	112	0.00	29.971 
11:25	24.2	24.2	24.2	92	22.2	3	10	90	0.00	29.971 
11:30	24.2	24.2	24.2	92	22.2	2	5	90	0.00	29.958 
11:35	24.2	24.2	24.2	92	22.2	1	5	112	0.00	29.958 
11:40	24.2	24.2	24.2	92	22.2	3	9	90	0.00	29.958 
11:45	24.2	24.2	24.2	92	22.2	2	9	90	0.00	29.944 
11:50	24.2	24.2	24.2	92	22.2	3	14	90	0.00	29.944 
11:55	24.2	24.2	24.2	92	22.2	3	8	90	0.00	29.944 
12:00	24.2	24.2	24.2	92	22.2	3	6	90	0.00	29.927 
12:05	24.2	24.2	24.2	92	22.2	2	6	90	0.00	29.927 
12:10	24.2	19.1	24.2	92	22.2	4	14	90	0.00	29.927 
12:15	24.2	24.2	24.2	92	22.2	3	10	90	0.00	29.923 
12:20	24.2	24.2	24.2	92	22.2	3	9	90	0.00	29.923 
12:25	24.2	24.2	24.2	92	22.2	2	7	112	0.00	29.923 
12:30	24.2	24.2	24.2	92	22.2	3	11	90	0.00	29.909 
12:35	24.2	24.2	24.2	92	22.2	2	7	90	0.00	29.909 
12:40	24.4	24.4	24.4	92	22.4	2	7	90	0.00	29.909 
12:45	24.4	24.4	24.4	92	22.4	2	6	90	0.00	29.896 
12:50	24.4	24.4	24.4	92	22.4	1	4	90	0.00	29.896 
12:55	24.5	24.5	24.5	92	22.5	2	6	90	0.00	29.896 
13:00	24.5	24.5	24.5	92	22.5	2	7	90	0.00	29.882 
13:05	24.5	24.5	24.5	92	22.5	2	5	135	0.00	29.882 
13:10	24.5	24.5	24.5	92	22.5	2	6	90	0.00	29.882 
13:15	24.5	24.5	24.5	92	22.5	3	10	90	0.00	29.865 
13:20	24.5	24.5	24.5	92	22.5	2	6	68	0.00	29.865 
13:25	24.7	24.7	24.7	92	22.7	1	5	45	0.00	29.865 
13:30	24.7	24.7	24.7	92	22.7	1	5	90	0.00	29.853 
13:35	24.7	24.7	24.7	92	22.7	2	6	68	0.00	29.853 
13:40	24.5	24.5	24.5	92	22.5	1	4	68	0.00	29.853 
13:45	24.5	24.5	24.5	92	22.5	1	5	68	0.00	29.844 
13:50	24.5	24.5	24.5	92	22.5	1	6	112	0.00	29.844 
13:55	24.7	24.7	24.7	92	22.7	1	5	112	0.00	29.844 
14:00	24.7	24.7	24.7	92	22.7	1	5	112	0.00	29.832 
14:05	24.7	24.7	24.7	92	22.7	1	3	90	0.00	29.832 
14:10	24.8	24.8	24.8	92	22.8	0	3	68	0.00	29.832 
14:15	25.0	25.0	25.0	92	23.0	1	5	68	0.00	29.827 
14:20	25.1	25.1	25.1	92	23.1	1	3	90	0.00	29.827 
14:25	25.1	25.1	25.1	92	23.1	1	5	45	0.00	29.827 
14:30	25.1	25.1	25.1	92	23.1	1	4	90	0.00	29.822 
14:35	25.1	25.1	25.1	92	23.1	1	3	90	0.00	29.822 
14:40	25.1	25.1	25.1	92	23.1	1	7	90	0.00	29.822 
14:45	25.1	25.1	25.1	92	23.1	1	6	112	0.00	29.815 
14:50	25.1	25.1	25.1	92	23.1	1	4	68	0.00	29.815 
14:55	25.1	25.1	25.1	92	23.1	1	3	68	0.00	29.815 
15:00	25.3	25.3	25.3	92	23.3	1	4	68	0.00	29.817 
15:05	25.3	25.3	25.3	92	23.3	1	4	68	0.00	29.817 
15:10	25.4	25.4	25.4	92	23.4	1	4	68	0.00	29.817 
15:15	25.4	25.4	25.4	92	23.4	1	4	68	0.00	29.815 
15:20	25.4	25.4	25.4	92	23.4	0	2	68	0.00	29.815 
15:25	25.6	25.6	25.6	92	23.6	1	3	68	0.00	29.815 
15:30	25.6	25.6	25.6	92	23.6	0	3	68	0.00	29.814 
15:35	25.4	25.4	25.4	92	23.4	1	5	90	0.00	29.814 
15:40	25.4	25.4	25.4	92	23.4	1	2	68	0.00	29.814 
15:45	25.4	25.4	25.4	92	23.4	0	2	68	0.00	29.818 
15:50	25.4	25.4	25.4	92	23.4	0	2	68	0.00	29.818 
15:55	25.3	25.3	25.3	92	23.3	1	6	68	0.00	29.818 
16:00	25.1	25.1	25.1	92	23.1	1	3	68	0.00	29.821 
16:05	25.1	25.1	25.1	92	23.1	1	5	112	0.00	29.821 
16:10	25.0	25.0	25.0	92	23.0	1	4	90	0.00	29.821 
16:15	25.0	25.0	25.0	92	23.0	1	2	90	0.00	29.824 
16:20	25.0	25.0	25.0	92	23.0	1	4	68	0.00	29.824 
16:25	25.0	25.0	25.0	92	23.0	1	3	45	0.00	29.824 
16:30	25.0	25.0	25.0	92	23.0	1	3	112	0.00	29.827 
16:35	25.1	25.1	25.1	92	23.1	1	4	112	0.00	29.827 
16:40	25.1	25.1	25.1	92	23.1	0	3	135	0.00	29.827 
16:45	25.1	25.1	25.1	92	23.1	0	3	338	0.00	29.831 
16:50	25.0	25.0	25.0	92	23.0	1	3	112	0.00	29.831 
16:55	25.0	25.0	25.0	92	23.0	1	5	112	0.00	29.831 
17:00	24.8	24.8	24.8	92	22.8	1	3	45	0.00	29.831 
17:05	24.8	24.8	24.8	92	22.8	0	3	112	0.00	29.831 
17:10	24.7	24.7	24.7	92	22.7	1	2	338	0.00	29.831 
17:15	24.7	24.7	24.7	92	22.7	0	3	0	0.00	29.820 
17:20	24.5	24.5	24.5	92	22.5	1	5	112	0.00	29.820 
17:25	24.4	24.4	24.4	92	22.4	0	3	338	0.00	29.820 
17:30	24.2	24.2	24.2	92	22.2	1	2	338	0.00	29.820 
17:35	24.1	24.1	24.1	92	22.1	1	6	90	0.00	29.820 
17:40	23.9	23.9	23.9	92	21.9	1	5	112	0.00	29.820 
17:45	23.8	23.8	23.8	92	21.8	1	4	112	0.00	29.832 
17:50	23.8	23.8	23.8	92	21.8	0	2	338	0.00	29.832 
17:55	23.8	23.8	23.8	92	21.8	1	2	338	0.00	29.832 
18:00	23.8	23.8	23.8	92	21.8	1	3	0	0.00	29.836 
18:05	23.8	23.8	23.8	91	21.6	1	2	0	0.00	29.836 
18:10	23.6	23.6	23.6	91	21.4	1	5	0	0.00	29.836 
18:15	23.6	23.6	23.6	91	21.4	1	3	338	0.00	29.831 
18:20	23.5	23.5	23.5	91	21.3	1	3	338	0.00	29.831 
18:25	23.3	23.3	23.3	91	21.1	0	3	90	0.00	29.831 
18:30	23.3	23.3	23.3	91	21.1	0	3	22	0.00	29.827 
18:35	23.2	23.2	23.2	91	21.0	0	3	22	0.00	29.827 
18:40	23.2	23.2	23.2	91	21.0	0	2	22	0.00	29.827 
18:45	23.2	23.2	23.2	91	21.0	1	2	45	0.00	29.822 
18:50	23.2	23.2	23.2	91	21.0	1	4	292	0.00	29.822 
18:55	23.0	23.0	23.0	91	20.8	1	4	315	0.00	29.822 
19:00	23.2	23.2	23.2	91	21.0	2	4	315	0.00	29.835 
19:05	23.2	23.2	23.2	91	21.0	1	5	338	0.00	29.835 
19:10	23.3	23.3	23.3	91	21.1	1	2	338	0.00	29.835 
19:15	23.3	23.3	23.3	91	21.1	0	2	338	0.00	29.836 
19:20	23.3	23.3	23.3	90	20.8	1	4	338	0.00	29.836 
19:25	23.3	23.3	23.3	90	20.8	2	4	338	0.00	29.836 
19:30	23.5	23.5	23.5	90	21.0	1	3	338	0.00	29.842 
19:35	23.5	23.5	23.5	90	21.0	1	4	338	0.00	29.842 
19:40	23.5	23.5	23.5	90	21.0	1	4	338	0.00	29.842 
19:45	23.3	23.3	23.3	90	20.8	1	3	338	0.00	29.837 
19:50	23.2	23.2	23.2	90	20.7	1	4	338	0.00	29.837 
19:55	23.2	23.2	23.2	90	20.7	0	3	338	0.00	29.837 
20:00	23.2	23.2	23.2	90	20.7	1	3	338	0.00	29.842 
20:05	23.2	23.2	23.2	89	20.4	1	4	338	0.00	29.842 
20:10	23.2	23.2	23.2	89	20.4	1	3	338	0.00	29.842 
20:15	23.2	23.2	23.2	89	20.4	0	3	338	0.00	29.852 
20:20	23.2	23.2	23.2	89	20.4	0	1	338	0.00	29.852 
20:25	23.0	23.0	23.0	89	20.3	0	2	338	0.00	29.852 
20:30	23.0	23.0	23.0	89	20.3	0	2	338	0.00	29.853 
20:35	23.0	23.0	23.0	89	20.3	0	2	338	0.00	29.853 
20:40	22.9	22.9	22.9	88	19.9	1	5	292	0.00	29.853 
20:45	22.9	22.9	22.9	88	19.9	1	3	315	0.00	29.862 
20:50	22.9	22.9	22.9	88	19.9	0	1	315	0.00	29.862 
20:55	22.7	22.7	22.7	88	19.7	1	3	315	0.00	29.862 
21:00	22.7	22.7	22.7	88	19.7	0	2	315	0.00	29.858 
21:05	22.7	22.7	22.7	88	19.7	1	3	315	0.00	29.858 
21:10	22.7	22.7	22.7	88	19.7	1	4	292	0.00	29.858 
21:15	22.5	22.5	22.5	88	19.5	1	3	292	0.00	29.865 
21:20	22.4	22.4	22.4	88	19.4	1	2	292	0.00	29.865 
21:25	22.4	22.4	22.4	88	19.4	1	4	338	0.00	29.865 
21:30	22.2	22.2	22.2	88	19.2	1	3	338	0.00	29.865 
21:35	22.1	22.1	22.1	88	19.1	1	4	338	0.00	29.865 
21:40	22.1	22.1	22.1	87	18.8	1	2	338	0.00	29.865 
21:45	22.1	22.1	22.1	87	18.8	1	4	338	0.00	29.874 
21:50	21.9	21.9	21.9	87	18.6	1	3	315	0.00	29.874 
21:55	21.9	21.9	21.9	87	18.6	1	3	292	0.00	29.874 
22:00	21.9	21.9	21.9	87	18.6	1	3	292	0.00	29.875 
22:05	21.8	21.8	21.8	87	18.5	1	3	292	0.00	29.875 
22:10	21.6	21.6	21.6	87	18.3	2	5	292	0.00	29.875 
22:15	21.6	21.6	21.6	87	18.3	2	5	315	0.00	29.880 
22:20	21.4	21.4	21.4	87	18.1	1	3	315	0.00	29.880 
22:25	21.4	21.4	21.4	87	18.1	2	4	292	0.00	29.880 
22:30	21.4	21.4	21.4	87	18.1	1	4	292	0.00	29.883 
22:35	21.4	21.4	21.4	87	18.1	0	4	292	0.00	29.883 
22:40	21.3	21.3	21.3	87	18.0	1	3	292	0.00	29.883 
22:45	21.1	21.1	21.1	86	17.6	2	6	292	0.00	29.881 
22:50	21.1	21.1	21.1	86	17.6	0	2	292	0.00	29.881 
22:55	21.1	21.1	21.1	86	17.6	1	5	338	0.00	29.881 
23:00	21.1	21.1	21.1	86	17.6	1	4	292	0.00	29.884 
23:05	21.0	21.0	21.0	86	17.5	0	3	292	0.00	29.884 
23:10	21.0	21.0	21.0	86	17.5	2	5	292	0.00	29.884 
23:15	21.0	21.0	21.0	86	17.5	1	3	270	0.00	29.888 
23:20	21.0	21.0	21.0	86	17.5	1	3	270	0.00	29.888 
23:25	21.0	21.0	21.0	86	17.5	1	3	270	0.00	29.888 
23:30	20.8	20.8	20.8	86	17.3	1	4	315	0.00	29.890 
23:35	20.8	20.8	20.8	86	17.3	1	3	315	0.00	29.890 
23:40	20.8	20.8	20.8	86	17.3	1	4	292	0.00	29.890 
23:45	20.8	20.8	20.8	86	17.3	1	4	338	0.00	29.898 
23:50	20.6	20.6	20.6	85	16.8	1	4	315	0.00	29.898 
23:55	20.3	20.3	20.3	85	16.5	1	3	315	0.00	29.898 

CoCoRaHS
IN-AL-39
A2 Web Hosting
Creative Commons License
GoDaddy
search engine by freefind advanced

loaded 2018-11-15 14:38:44 • last modified 2010-11-18 10:43:29
Privacy PolicyDisclaimer
• wx.awcolley.com is powered by PmWiki v.2002016 •
• all content (unless otherwise noted) © 2018 A W Colley